Time;durP1;ratioP1;P1;durP2;ratioP2;P2;SDS_P1;SDS_P2;PMS_P1;PMS_P2;Temp;Humidity;BMP_temperature;BMP_pressure;BME280_temperature;BME280_humidity;BME280_pressure;Samples;Min_cycle;Max_cycle;Signal;HPM_P1;HPM_P2
2022/11/22 00:00:44;;;;;;;14.43;5.43;;;7.30;99.90;;;;;;6215160;23;20331;-90
2022/11/22 00:03:10;;;;;;;19.90;6.13;;;7.30;99.90;;;;;;6214757;23;20068;-90
2022/11/22 00:05:38;;;;;;;18.05;6.43;;;7.30;99.90;;;;;;6214971;23;20036;-90
2022/11/22 00:08:07;;;;;;;20.00;5.97;;;7.30;99.90;;;;;;6214686;23;20403;-91
2022/11/22 00:10:33;;;;;;;18.33;6.50;;;7.30;99.90;;;;;;6214809;23;20020;-91
2022/11/22 00:13:00;;;;;;;18.00;6.60;;;7.30;99.90;;;;;;6189889;23;20004;-90
2022/11/22 00:15:25;;;;;;;16.13;6.10;;;7.30;99.90;;;;;;6216682;23;20497;-92
2022/11/22 00:17:53;;;;;;;21.17;6.15;;;7.30;99.90;;;;;;6216205;23;20012;-91
2022/11/22 00:20:19;;;;;;;19.42;6.38;;;7.30;99.90;;;;;;6216412;23;20005;-91
2022/11/22 00:22:54;;;;;;;16.27;6.90;;;7.20;99.90;;;;;;6217311;23;20008;-90
2022/11/22 00:25:23;;;;;;;16.58;7.18;;;7.30;99.90;;;;;;6194710;23;20087;-89
2022/11/22 00:27:51;;;;;;;17.25;6.72;;;7.30;99.90;;;;;;6218944;23;20084;-89
2022/11/22 00:33:09;;;;;;;18.17;7.40;;;7.30;99.90;;;;;;6207477;23;20327;-90
2022/11/22 00:35:38;;;;;;;12.82;6.85;;;7.30;99.90;;;;;;6193941;23;20427;-90
2022/11/22 00:38:04;;;;;;;18.05;7.63;;;7.30;99.90;;;;;;6217671;23;20091;-90
2022/11/22 00:40:29;;;;;;;20.05;6.47;;;7.30;99.90;;;;;;6191405;23;20059;-89
2022/11/22 00:45:41;;;;;;;18.77;6.88;;;7.30;99.90;;;;;;6218075;23;20060;-90
2022/11/22 00:48:09;;;;;;;17.73;6.50;;;7.30;99.90;;;;;;6216340;23;20004;-90
2022/11/22 00:50:35;;;;;;;19.55;6.68;;;7.30;99.90;;;;;;6216378;23;20008;-89
2022/11/22 00:53:01;;;;;;;19.27;7.38;;;7.40;99.90;;;;;;6216512;23;20005;-90
2022/11/22 00:55:27;;;;;;;15.75;6.57;;;7.40;99.90;;;;;;6216113;23;20521;-90
2022/11/22 00:57:52;;;;;;;19.15;7.57;;;7.40;99.90;;;;;;6216606;23;20008;-90
2022/11/22 01:00:21;;;;;;;21.23;7.72;;;7.40;99.90;;;;;;6215808;23;20000;-91
2022/11/22 01:02:46;;;;;;;16.27;5.63;;;7.40;99.90;;;;;;6215922;23;20001;-90
2022/11/22 01:05:12;;;;;;;22.27;7.13;;;7.40;99.90;;;;;;6216169;23;20019;-90
2022/11/22 01:07:38;;;;;;;17.27;7.30;;;7.40;99.90;;;;;;6193787;23;20420;-91
2022/11/22 01:10:15;;;;;;;16.90;7.72;;;7.40;99.90;;;;;;6191963;23;20072;-89
2022/11/22 01:12:41;;;;;;;16.52;7.00;;;7.40;99.90;;;;;;6216243;23;20011;-89
2022/11/22 01:15:07;;;;;;;22.35;7.85;;;7.40;99.90;;;;;;6216679;23;20036;-90
2022/11/22 01:17:33;;;;;;;14.20;7.10;;;7.40;99.90;;;;;;6216222;23;20477;-90
2022/11/22 01:19:58;;;;;;;16.95;7.13;;;7.40;99.90;;;;;;6216249;23;20005;-89
2022/11/22 01:22:24;;;;;;;17.52;6.80;;;7.40;99.90;;;;;;6191483;23;20008;-89
2022/11/22 01:24:50;;;;;;;17.23;7.57;;;7.40;99.90;;;;;;6215667;23;20068;-88
2022/11/22 01:27:16;;;;;;;16.77;7.97;;;7.40;99.90;;;;;;6190810;23;20007;-88
2022/11/22 01:29:44;;;;;;;12.00;7.00;;;7.40;99.90;;;;;;6190973;23;20088;-88
2022/11/22 01:32:09;;;;;;;18.52;7.63;;;7.40;99.90;;;;;;6215845;23;20055;-88
2022/11/22 01:34:35;;;;;;;19.45;7.60;;;7.50;99.90;;;;;;6215716;23;20001;-89
2022/11/22 01:37:08;;;;;;;19.40;8.55;;;7.50;99.90;;;;;;6217464;23;20360;-89
2022/11/22 01:39:33;;;;;;;19.65;7.05;;;7.40;99.90;;;;;;6215863;23;20005;-89
2022/11/22 01:41:59;;;;;;;15.20;6.90;;;7.40;99.90;;;;;;6191349;23;20066;-89
2022/11/22 01:44:30;;;;;;;21.02;7.78;;;7.50;99.90;;;;;;6214030;23;20000;-90
2022/11/22 01:47:18;;;;;;;16.30;6.63;;;7.50;99.90;;;;;;6214535;23;20088;-89
2022/11/22 01:49:55;;;;;;;14.30;6.43;;;7.50;99.90;;;;;;6217374;23;20470;-89
2022/11/22 01:52:24;;;;;;;20.23;6.82;;;7.50;99.90;;;;;;6215435;23;20015;-89
2022/11/22 01:54:56;;;;;;;17.90;6.60;;;7.50;99.90;;;;;;6215755;23;20000;-89
2022/11/22 01:57:24;;;;;;;13.77;6.32;;;7.40;99.90;;;;;;6216378;23;20015;-88
2022/11/22 01:59:58;;;;;;;13.40;6.78;;;7.40;99.90;;;;;;6216265;23;20013;-88
2022/11/22 02:02:29;;;;;;;14.18;6.82;;;7.40;99.90;;;;;;6215660;23;20008;-89
2022/11/22 02:04:57;;;;;;;17.73;6.28;;;7.40;99.90;;;;;;6215678;23;19996;-89
2022/11/22 02:07:40;;;;;;;16.83;6.68;;;7.30;99.90;;;;;;6215217;23;20001;-89
2022/11/22 02:10:07;;;;;;;18.98;6.85;;;7.40;99.90;;;;;;6227012;22;20062;-88
2022/11/22 02:12:35;;;;;;;18.20;6.40;;;7.40;99.90;;;;;;6220072;23;20004;-90
2022/11/22 02:15:03;;;;;;;15.68;6.47;;;7.30;99.90;;;;;;6220669;23;20410;-89
2022/11/22 02:17:31;;;;;;;13.65;6.13;;;7.30;99.90;;;;;;6220235;23;20006;-90
2022/11/22 02:19:57;;;;;;;16.75;6.90;;;7.30;99.90;;;;;;6171184;23;20019;-89
2022/11/22 02:22:39;;;;;;;15.80;6.63;;;7.30;99.90;;;;;;6220083;23;20000;-90
2022/11/22 02:25:10;;;;;;;18.38;7.22;;;7.30;99.90;;;;;;6220665;23;20335;-89
2022/11/22 02:27:41;;;;;;;18.73;7.50;;;7.30;99.90;;;;;;6223606;23;20005;-90
2022/11/22 02:30:07;;;;;;;16.13;6.95;;;7.40;99.90;;;;;;6195591;23;20075;-89
2022/11/22 02:32:40;;;;;;;14.05;5.55;;;7.30;99.90;;;;;;6219502;23;20005;-89
2022/11/22 02:35:24;;;;;;;18.08;6.13;;;7.40;99.90;;;;;;6220678;23;20000;-89
2022/11/22 02:37:55;;;;;;;15.50;6.03;;;7.40;99.90;;;;;;6220231;23;20138;-89
2022/11/22 02:40:24;;;;;;;14.98;5.82;;;7.40;99.90;;;;;;6220363;23;20021;-91
2022/11/22 02:42:59;;;;;;;13.73;5.15;;;7.40;99.90;;;;;;6221875;23;20000;-89
2022/11/22 02:45:24;;;;;;;17.98;5.85;;;7.40;99.90;;;;;;6248686;23;19996;-88
2022/11/22 02:47:50;;;;;;;15.13;5.70;;;7.40;99.90;;;;;;6222753;23;20008;-89
2022/11/22 02:50:16;;;;;;;13.48;5.25;;;7.40;99.90;;;;;;6220186;23;20000;-88
2022/11/22 02:52:42;;;;;;;16.15;6.00;;;7.40;99.90;;;;;;6219676;23;20079;-88
2022/11/22 02:55:10;;;;;;;18.33;5.35;;;7.40;99.90;;;;;;6219464;23;20034;-86
2022/11/22 02:57:39;;;;;;;16.80;4.88;;;7.40;99.90;;;;;;6219294;23;20042;-88
2022/11/22 03:00:08;;;;;;;17.95;4.72;;;7.50;99.90;;;;;;6219877;23;20077;-89
2022/11/22 03:02:33;;;;;;;14.85;4.50;;;7.40;99.90;;;;;;6219473;23;20061;-89
2022/11/22 03:05:05;;;;;;;17.75;4.60;;;7.40;99.90;;;;;;6219883;23;20091;-88
2022/11/22 03:07:33;;;;;;;14.75;4.10;;;7.50;99.90;;;;;;6219997;23;20000;-88
2022/11/22 03:09:59;;;;;;;16.25;4.55;;;7.50;99.90;;;;;;6196081;23;20439;-88
2022/11/22 03:12:24;;;;;;;17.08;4.38;;;7.50;99.90;;;;;;6169888;23;20012;-88
2022/11/22 03:14:50;;;;;;;14.98;4.15;;;7.40;99.90;;;;;;6194971;23;20000;-88
2022/11/22 03:17:16;;;;;;;17.30;4.00;;;7.40;99.90;;;;;;6170274;23;20039;-88
2022/11/22 03:19:44;;;;;;;17.02;3.97;;;7.40;99.90;;;;;;6170254;23;20004;-86
2022/11/22 03:22:10;;;;;;;17.20;4.43;;;7.40;99.90;;;;;;6195829;23;20438;-87
2022/11/22 03:24:35;;;;;;;17.40;3.58;;;7.40;99.90;;;;;;6220287;23;20051;-88
2022/11/22 03:27:01;;;;;;;16.85;4.10;;;7.40;99.90;;;;;;6196187;23;20005;-87
2022/11/22 03:29:27;;;;;;;22.00;3.70;;;7.40;99.90;;;;;;6195961;23;20024;-88
2022/11/22 03:31:52;;;;;;;11.70;3.45;;;7.40;99.90;;;;;;6211044;23;20004;-87
2022/11/22 03:34:18;;;;;;;15.93;3.30;;;7.40;99.90;;;;;;6242986;23;20004;-87
2022/11/22 03:36:44;;;;;;;18.60;3.47;;;7.40;99.90;;;;;;6243249;23;20007;-86
2022/11/22 03:39:10;;;;;;;18.95;3.85;;;7.40;99.90;;;;;;6269306;22;20011;-87
2022/11/22 03:41:35;;;;;;;15.00;2.78;;;7.40;99.90;;;;;;6243013;23;19988;-87
2022/11/22 03:44:02;;;;;;;15.40;3.30;;;7.40;99.90;;;;;;6234587;23;20099;-87
2022/11/22 03:46:27;;;;;;;16.73;3.47;;;7.30;99.90;;;;;;6220042;23;20047;-88
2022/11/22 03:48:53;;;;;;;17.52;4.35;;;7.30;99.90;;;;;;6221065;23;20001;-87
2022/11/22 03:51:19;;;;;;;19.42;3.70;;;7.30;99.90;;;;;;6249460;22;20199;-88
2022/11/22 03:53:44;;;;;;;15.82;3.50;;;7.30;99.90;;;;;;6221808;23;20000;-87
2022/11/22 03:56:10;;;;;;;12.10;2.53;;;7.30;99.90;;;;;;6195878;23;20000;-87
2022/11/22 03:58:36;;;;;;;18.90;3.42;;;7.30;99.90;;;;;;6220828;23;20015;-88
2022/11/22 04:01:04;;;;;;;22.42;3.08;;;7.20;99.90;;;;;;6221132;23;20004;-87
2022/11/22 04:03:32;;;;;;;13.50;2.47;;;7.20;99.90;;;;;;6221013;23;20008;-87
2022/11/22 04:05:58;;;;;;;14.52;2.90;;;7.20;99.90;;;;;;6220670;23;19996;-87
2022/11/22 04:08:24;;;;;;;16.25;2.92;;;7.20;99.90;;;;;;6220759;23;20088;-87
2022/11/22 04:10:52;;;;;;;16.25;2.97;;;7.20;99.90;;;;;;6195341;23;20095;-87
2022/11/22 04:13:21;;;;;;;16.10;4.15;;;7.20;99.90;;;;;;6220950;23;20028;-87
2022/11/22 04:15:46;;;;;;;12.85;2.78;;;7.10;99.90;;;;;;6219918;23;20082;-87
2022/11/22 04:18:13;;;;;;;15.30;2.67;;;7.10;99.90;;;;;;6220847;23;20411;-87
2022/11/22 04:23:27;;;;;;;16.45;2.80;;;7.10;99.90;;;;;;6247217;23;20387;-87
2022/11/22 04:25:54;;;;;;;19.83;3.13;;;7.10;99.90;;;;;;6246510;22;20000;-87
2022/11/22 04:28:23;;;;;;;18.42;3.13;;;7.00;99.90;;;;;;6220784;23;20015;-87
2022/11/22 04:33:36;;;;;;;15.27;3.13;;;7.00;99.90;;;;;;6247361;23;20504;-87
2022/11/22 04:36:02;;;;;;;22.20;3.00;;;7.00;99.90;;;;;;6196097;23;20041;-87
2022/11/22 04:38:28;;;;;;;17.13;2.92;;;7.00;99.90;;;;;;6195762;23;20008;-87
2022/11/22 04:40:54;;;;;;;11.95;3.00;;;7.00;99.90;;;;;;6170631;23;20004;-87
2022/11/22 04:46:13;;;;;;;22.27;4.90;;;6.90;99.90;;;;;;6224653;23;20015;-88
2022/11/22 04:48:39;;;;;;;22.73;3.10;;;6.90;99.90;;;;;;6246872;22;20438;-87
2022/11/22 04:53:55;;;;;;;19.45;3.25;;;6.90;99.90;;;;;;6246674;23;20046;-87
2022/11/22 04:56:23;;;;;;;15.85;3.30;;;6.80;99.90;;;;;;6220357;23;19996;-87
2022/11/22 04:58:50;;;;;;;14.10;2.67;;;6.80;99.90;;;;;;6220015;23;20450;-86
2022/11/22 05:01:23;;;;;;;14.30;3.03;;;6.80;99.90;;;;;;6219914;23;20011;-86
2022/11/22 05:03:49;;;;;;;19.63;3.85;;;6.70;99.90;;;;;;6220050;23;19996;-87
2022/11/22 05:06:15;;;;;;;17.38;2.88;;;6.70;99.90;;;;;;6220380;23;19996;-87
2022/11/22 05:08:43;;;;;;;12.50;2.13;;;6.70;99.90;;;;;;6170124;23;20008;-88
2022/11/22 05:11:11;;;;;;;13.15;2.30;;;6.60;99.90;;;;;;6219590;23;20015;-86
2022/11/22 05:13:41;;;;;;;12.55;2.58;;;6.60;99.90;;;;;;6195437;23;20019;-86
2022/11/22 05:16:10;;;;;;;21.40;3.17;;;6.60;99.90;;;;;;6247457;23;20000;-86
2022/11/22 05:18:38;;;;;;;15.93;2.63;;;6.50;99.90;;;;;;6219982;23;20008;-87
2022/11/22 05:21:10;;;;;;;20.73;3.08;;;6.50;99.90;;;;;;6219959;23;20004;-85
2022/11/22 05:23:54;;;;;;;14.10;2.92;;;6.50;99.90;;;;;;6219855;23;20000;-86
2022/11/22 05:26:30;;;;;;;17.65;2.70;;;6.50;99.90;;;;;;6220408;23;20336;-86
2022/11/22 05:29:02;;;;;;;18.65;3.13;;;6.50;99.90;;;;;;6220131;23;20008;-86
2022/11/22 05:31:27;;;;;;;12.48;2.40;;;6.40;99.90;;;;;;6220008;23;20075;-86
2022/11/22 05:33:55;;;;;;;17.63;2.88;;;6.40;99.90;;;;;;6194693;23;20481;-86
2022/11/22 05:36:22;;;;;;;16.42;2.92;;;6.40;99.90;;;;;;6219480;23;20007;-86
2022/11/22 05:38:48;;;;;;;12.85;2.45;;;6.30;99.90;;;;;;6218929;23;20091;-87
2022/11/22 05:41:17;;;;;;;14.70;2.28;;;6.30;99.90;;;;;;6220063;23;20420;-86
2022/11/22 05:43:43;;;;;;;13.30;2.42;;;6.30;99.90;;;;;;6219858;23;20356;-85
2022/11/22 05:46:20;;;;;;;12.05;2.92;;;6.30;99.90;;;;;;6218488;23;20035;-85
2022/11/22 05:48:57;;;;;;;;;;;;;;;;;;;;;
2022/11/22 05:51:30;;;;;;;9.75;2.05;;;6.20;99.90;;;;;;6246304;23;20136;-86
2022/11/22 05:53:58;;;;;;;16.02;2.38;;;6.20;99.90;;;;;;6246120;23;20004;-86
2022/11/22 05:56:23;;;;;;;14.00;2.22;;;6.10;99.90;;;;;;6194766;23;20415;-86
2022/11/22 05:58:55;;;;;;;16.67;2.85;;;6.20;99.90;;;;;;6194618;23;20008;-85
2022/11/22 06:01:21;;;;;;;;;;;6.10;99.90;;;;;;6247540;23;20008;-86
2022/11/22 06:03:50;;;;;;;14.95;2.60;;;6.10;99.90;;;;;;6246325;22;19906;-84
2022/11/22 06:06:16;;;;;;;13.80;2.60;;;6.10;99.90;;;;;;6244872;22;20004;-85
2022/11/22 06:08:45;;;;;;;10.18;1.85;;;6.10;99.90;;;;;;6219562;23;20008;-86
2022/11/22 06:11:24;;;;;;;17.48;2.55;;;6.10;99.90;;;;;;6219015;23;20012;-86
2022/11/22 06:13:58;;;;;;;14.32;2.53;;;6.10;99.90;;;;;;6219525;23;20015;-86
2022/11/22 06:16:25;;;;;;;15.35;2.67;;;6.10;99.90;;;;;;6218102;23;20362;-87
2022/11/22 06:18:55;;;;;;;13.77;2.35;;;6.00;99.90;;;;;;6201691;23;20449;-86
2022/11/22 06:21:25;;;;;;;13.38;2.33;;;6.00;99.90;;;;;;6219282;23;20087;-85
2022/11/22 06:23:56;;;;;;;11.10;2.40;;;6.00;99.90;;;;;;6219338;23;20031;-87
2022/11/22 06:26:23;;;;;;;15.73;2.58;;;6.00;99.90;;;;;;6245973;22;20052;-85
2022/11/22 06:28:50;;;;;;;17.92;2.80;;;6.00;99.90;;;;;;6218628;23;20426;-86
2022/11/22 06:31:21;;;;;;;14.80;3.20;;;6.00;99.90;;;;;;6217365;23;20004;-87
2022/11/22 06:33:50;;;;;;;16.02;2.30;;;5.90;99.90;;;;;;6218136;23;20004;-86
2022/11/22 06:36:20;;;;;;;14.45;2.85;;;5.90;99.90;;;;;;6219086;23;20083;-86
2022/11/22 06:38:49;;;;;;;13.00;2.47;;;5.90;99.90;;;;;;6218222;23;20015;-87
2022/11/22 06:41:20;;;;;;;16.67;2.30;;;5.90;99.90;;;;;;6218397;23;20004;-88
2022/11/22 06:43:50;;;;;;;16.92;2.40;;;5.90;99.90;;;;;;6219114;23;20082;-86
2022/11/22 06:46:20;;;;;;;12.02;2.28;;;5.90;99.90;;;;;;6218642;23;20011;-86
2022/11/22 06:48:56;;;;;;;;;;;;;;;;;;;;;
2022/11/22 06:51:29;;;;;;;14.18;2.50;;;5.90;99.90;;;;;;6245921;23;20024;-85
2022/11/22 06:53:55;;;;;;;14.93;2.92;;;5.90;99.90;;;;;;6219038;23;19996;-87
2022/11/22 06:56:37;;;;;;;16.83;2.78;;;5.90;99.90;;;;;;6218784;23;20008;-85
2022/11/22 06:59:07;;;;;;;19.63;3.15;;;5.90;99.90;;;;;;6245732;23;20004;-85
2022/11/22 07:01:38;;;;;;;20.10;3.25;;;5.90;99.90;;;;;;6219005;23;19997;-86
2022/11/22 07:04:04;;;;;;;16.42;3.38;;;5.80;99.90;;;;;;6194114;23;20027;-86
2022/11/22 07:06:34;;;;;;;20.80;3.58;;;5.80;99.90;;;;;;6193997;23;20431;-85
2022/11/22 07:09:01;;;;;;;19.42;3.20;;;5.80;99.90;;;;;;6218947;23;20008;-86
2022/11/22 07:11:29;;;;;;;14.77;3.35;;;5.80;99.90;;;;;;6211660;23;20038;-85
2022/11/22 07:13:57;;;;;;;13.55;2.88;;;5.80;99.90;;;;;;6214417;23;20012;-84
2022/11/22 07:16:22;;;;;;;22.35;3.80;;;5.80;99.90;;;;;;6213944;23;20027;-85
2022/11/22 07:18:49;;;;;;;22.05;3.17;;;5.80;99.90;;;;;;6188697;23;20013;-84
2022/11/22 07:21:19;;;;;;;16.73;2.40;;;5.70;99.90;;;;;;6214670;23;20004;-84
2022/11/22 07:23:54;;;;;;;19.95;2.88;;;5.70;99.90;;;;;;6214762;23;20083;-84
2022/11/22 07:26:22;;;;;;;15.38;2.55;;;5.70;99.90;;;;;;6215378;23;20008;-84
2022/11/22 07:28:50;;;;;;;15.80;2.65;;;5.70;99.90;;;;;;6215791;23;20092;-86
2022/11/22 07:31:17;;;;;;;20.55;2.88;;;5.70;99.90;;;;;;6215684;23;20035;-86
2022/11/22 07:33:43;;;;;;;14.77;2.65;;;5.60;99.90;;;;;;6190642;23;20062;-87
2022/11/22 07:36:14;;;;;;;12.00;2.53;;;5.70;99.90;;;;;;6215612;23;20438;-85
2022/11/22 07:38:40;;;;;;;15.63;4.35;;;5.70;99.90;;;;;;6215336;23;20044;-86
2022/11/22 07:41:07;;;;;;;11.77;2.50;;;5.70;99.90;;;;;;6215874;23;20059;-85
2022/11/22 07:43:33;;;;;;;18.58;2.90;;;5.70;99.90;;;;;;6216153;23;20031;-90
2022/11/22 07:46:28;;;;;;;17.38;3.55;;;5.70;99.90;;;;;;6215457;23;20035;-87
2022/11/22 07:49:01;;;;;;;11.30;3.13;;;5.70;99.90;;;;;;6214795;23;20008;-86
2022/11/22 07:51:27;;;;;;;15.63;3.28;;;5.80;99.90;;;;;;6215836;23;20004;-84
2022/11/22 07:53:54;;;;;;;14.00;2.40;;;5.80;99.90;;;;;;6190231;23;20004;-85
2022/11/22 07:56:20;;;;;;;18.13;2.95;;;5.80;99.90;;;;;;6190516;23;20035;-85
2022/11/22 07:58:45;;;;;;;15.55;2.65;;;5.80;99.90;;;;;;6214742;23;20004;-85
2022/11/22 08:01:13;;;;;;;15.60;3.20;;;5.80;99.90;;;;;;6165024;23;20016;-86
2022/11/22 08:03:42;;;;;;;11.93;2.17;;;5.80;99.90;;;;;;6215610;23;20001;-84
2022/11/22 08:06:10;;;;;;;15.18;2.55;;;5.80;99.90;;;;;;6215256;23;20005;-85
2022/11/22 08:08:38;;;;;;;10.65;2.33;;;5.80;99.90;;;;;;6217028;23;20001;-84
2022/11/22 08:11:09;;;;;;;11.98;2.35;;;5.90;99.90;;;;;;6214980;23;20012;-85
2022/11/22 08:13:35;;;;;;;12.17;2.43;;;5.90;99.90;;;;;;6215339;23;20024;-84
2022/11/22 08:16:05;;;;;;;15.68;2.95;;;5.90;99.90;;;;;;6215343;23;20553;-85
2022/11/22 08:18:31;;;;;;;12.60;2.70;;;5.90;99.90;;;;;;6214896;23;20004;-86
2022/11/22 08:21:10;;;;;;;7.47;2.10;;;6.00;99.90;;;;;;6214938;23;20088;-84
2022/11/22 08:23:37;;;;;;;9.80;1.98;;;6.00;99.90;;;;;;6215244;23;20001;-85
2022/11/22 08:26:04;;;;;;;11.95;2.33;;;6.00;99.90;;;;;;6214889;23;20013;-87
2022/11/22 08:28:32;;;;;;;15.13;2.30;;;6.00;99.90;;;;;;6214865;23;20021;-84
2022/11/22 08:31:07;;;;;;;17.17;2.75;;;6.10;99.90;;;;;;6215066;23;20004;-84
2022/11/22 08:33:38;;;;;;;12.63;2.50;;;6.10;99.90;;;;;;6216440;23;20054;-84
2022/11/22 08:36:07;;;;;;;8.35;2.30;;;6.10;99.90;;;;;;6190510;23;20086;-84
2022/11/22 08:38:44;;;;;;;13.07;2.20;;;6.10;99.90;;;;;;6214934;23;20012;-85
2022/11/22 08:41:09;;;;;;;10.95;2.25;;;6.20;99.90;;;;;;6214713;23;20001;-84
2022/11/22 08:43:43;;;;;;;14.85;2.30;;;6.20;99.90;;;;;;6215297;23;20001;-84
2022/11/22 08:46:09;;;;;;;12.30;2.33;;;6.20;99.90;;;;;;6214812;23;20000;-87
2022/11/22 08:48:37;;;;;;;12.55;3.25;;;6.20;99.90;;;;;;6214666;23;20013;-84
2022/11/22 08:51:06;;;;;;;16.05;2.90;;;6.20;99.90;;;;;;6214785;23;20005;-83
2022/11/22 08:53:36;;;;;;;10.77;2.30;;;6.30;99.90;;;;;;6215027;23;20084;-84
2022/11/22 08:56:04;;;;;;;16.27;2.70;;;6.30;99.90;;;;;;6216913;23;20407;-84
2022/11/22 08:58:31;;;;;;;7.95;1.90;;;6.30;99.90;;;;;;6214258;23;20104;-83
2022/11/22 09:01:02;;;;;;;9.15;2.80;;;6.30;99.90;;;;;;6214645;23;20011;-84
2022/11/22 09:03:28;;;;;;;6.63;2.30;;;6.30;99.90;;;;;;6214760;23;20779;-83
2022/11/22 09:06:05;;;;;;;13.35;2.28;;;6.40;99.90;;;;;;6214323;23;20000;-83
2022/11/22 09:08:32;;;;;;;9.27;2.25;;;6.40;99.90;;;;;;6214391;23;20009;-83
2022/11/22 09:11:07;;;;;;;16.70;2.10;;;6.50;99.90;;;;;;6214249;23;20016;-83
2022/11/22 09:13:33;;;;;;;9.25;2.33;;;6.40;99.90;;;;;;6214647;23;20030;-83
2022/11/22 09:16:04;;;;;;;8.25;2.20;;;6.50;99.90;;;;;;6214676;23;20076;-83
2022/11/22 09:18:30;;;;;;;10.70;2.17;;;6.50;99.90;;;;;;6214041;23;20119;-84
2022/11/22 09:21:00;;;;;;;12.20;2.30;;;6.50;99.90;;;;;;6214429;23;20001;-83
2022/11/22 09:23:25;;;;;;;11.68;2.53;;;6.60;99.90;;;;;;6189601;23;20005;-85
2022/11/22 09:26:06;;;;;;;11.18;2.70;;;6.60;99.90;;;;;;6216716;23;20051;-84
2022/11/22 09:28:32;;;;;;;11.53;2.73;;;6.60;99.90;;;;;;6214512;23;20030;-84
2022/11/22 09:31:06;;;;;;;11.48;2.38;;;6.60;99.90;;;;;;6216176;23;20001;-84
2022/11/22 09:33:37;;;;;;;8.77;2.22;;;6.60;99.90;;;;;;6216191;23;20051;-83
2022/11/22 09:36:06;;;;;;;14.63;1.90;;;6.70;99.90;;;;;;6212937;23;20032;-83
2022/11/22 09:38:33;;;;;;;8.27;2.00;;;6.70;99.90;;;;;;6214239;23;20011;-85
2022/11/22 09:41:05;;;;;;;12.25;2.50;;;6.70;99.90;;;;;;6214675;23;20012;-83
2022/11/22 09:43:53;;;;;;;7.95;2.00;;;6.80;99.90;;;;;;6214767;23;20004;-83
2022/11/22 09:46:27;;;;;;;8.40;1.70;;;6.80;99.90;;;;;;6214600;23;20095;-84
2022/11/22 09:49:04;;;;;;;7.55;2.00;;;6.80;99.90;;;;;;6215758;23;20054;-82
2022/11/22 09:51:46;;;;;;;11.30;2.17;;;6.80;99.90;;;;;;6214853;23;20009;-85
2022/11/22 09:54:18;;;;;;;15.00;2.75;;;6.90;99.90;;;;;;6214638;23;19996;-88
2022/11/22 09:56:44;;;;;;;15.23;2.95;;;6.80;99.90;;;;;;6213850;23;20331;-83
2022/11/22 09:59:20;;;;;;;10.02;2.92;;;6.90;99.90;;;;;;6214277;23;20480;-82
2022/11/22 10:01:49;;;;;;;10.40;2.15;;;6.90;99.90;;;;;;6214553;23;20000;-83
2022/11/22 10:04:37;;;;;;;12.30;3.13;;;6.90;99.90;;;;;;6214044;23;20005;-84
2022/11/22 10:07:25;;;;;;;6.13;1.83;;;7.00;99.90;;;;;;6214424;23;20008;-84
2022/11/22 10:10:22;;;;;;;6.57;1.88;;;7.00;99.90;;;;;;6218014;22;20091;-83
2022/11/22 10:13:07;;;;;;;8.13;2.08;;;7.10;99.90;;;;;;6246292;23;19996;-83
2022/11/22 10:16:19;;;;;;;13.95;2.95;;;7.10;99.90;;;;;;6219014;23;20085;-83
2022/11/22 10:19:22;;;;;;;10.98;2.28;;;7.20;99.90;;;;;;6218701;23;20077;-83
2022/11/22 10:21:48;;;;;;;9.65;2.25;;;7.20;99.90;;;;;;6193027;23;20426;-84
2022/11/22 10:24:18;;;;;;;13.82;2.70;;;7.20;99.90;;;;;;6195334;23;20000;-83
2022/11/22 10:26:47;;;;;;;7.18;1.67;;;7.20;99.90;;;;;;6220577;23;20008;-84
2022/11/22 10:29:49;;;;;;;12.00;1.98;;;7.30;99.90;;;;;;6219359;23;20012;-84
2022/11/22 10:32:39;;;;;;;13.80;2.55;;;7.30;99.90;;;;;;6219454;23;20007;-84
2022/11/22 10:35:20;;;;;;;8.37;2.13;;;7.30;99.90;;;;;;6246028;22;20023;-83
2022/11/22 10:37:57;;;;;;;8.27;2.00;;;7.30;99.90;;;;;;6219216;23;20007;-83
2022/11/22 10:40:37;;;;;;;6.97;1.67;;;7.40;99.90;;;;;;6218823;23;20008;-83
2022/11/22 10:43:21;;;;;;;8.82;1.73;;;7.40;99.90;;;;;;6246145;23;20000;-84
2022/11/22 10:46:00;;;;;;;11.15;1.75;;;7.50;99.90;;;;;;6219502;23;20000;-86
2022/11/22 10:49:01;;;;;;;8.85;1.98;;;7.50;99.90;;;;;;6219036;23;20014;-83
2022/11/22 10:51:51;;;;;;;16.25;2.40;;;7.50;99.90;;;;;;6218698;23;20050;-83
2022/11/22 10:54:36;;;;;;;9.30;1.83;;;7.50;99.90;;;;;;6218448;23;20429;-83
2022/11/22 10:57:07;;;;;;;8.15;1.63;;;7.50;99.90;;;;;;6245353;23;20004;-83
2022/11/22 10:59:36;;;;;;;10.38;1.90;;;7.50;99.90;;;;;;6218782;23;20095;-83
2022/11/22 11:02:17;;;;;;;7.35;1.90;;;7.60;99.90;;;;;;6218551;23;20019;-85
2022/11/22 11:04:44;;;;;;;4.90;1.52;;;7.60;99.90;;;;;;6218760;23;20382;-84
2022/11/22 11:07:19;;;;;;;6.22;1.15;;;7.50;99.90;;;;;;6169602;23;20079;-90
2022/11/22 11:09:59;;;;;;;8.45;1.98;;;7.60;99.90;;;;;;6219741;23;20107;-84
2022/11/22 11:12:40;;;;;;;8.07;2.08;;;7.60;99.90;;;;;;6218746;23;20012;-85
2022/11/22 11:15:23;;;;;;;6.43;1.45;;;7.60;99.90;;;;;;6219383;23;20411;-85
2022/11/22 11:17:54;;;;;;;8.27;1.40;;;7.70;99.90;;;;;;6218640;23;20050;-85
2022/11/22 11:20:33;;;;;;;7.00;2.03;;;7.70;99.90;;;;;;6219023;23;20326;-84
2022/11/22 11:22:59;;;;;;;6.50;1.63;;;7.70;99.90;;;;;;6245687;23;20007;-83
2022/11/22 11:25:29;;;;;;;5.05;2.10;;;7.70;99.90;;;;;;6218162;23;20028;-84
2022/11/22 11:27:58;;;;;;;6.60;1.40;;;7.70;99.90;;;;;;6218816;23;20005;-83
2022/11/22 11:30:23;;;;;;;5.63;1.00;;;7.70;99.90;;;;;;6244916;22;20323;-85
2022/11/22 11:32:51;;;;;;;6.40;1.63;;;7.70;99.90;;;;;;6244805;23;20000;-84
2022/11/22 11:35:20;;;;;;;6.43;1.27;;;7.80;99.90;;;;;;6219254;23;20004;-83
2022/11/22 11:37:45;;;;;;;6.82;1.38;;;7.80;99.90;;;;;;6218600;23;20008;-83
2022/11/22 11:40:29;;;;;;;4.43;1.20;;;7.80;99.90;;;;;;6194482;23;20330;-84
2022/11/22 11:43:21;;;;;;;4.78;1.08;;;7.80;99.90;;;;;;6229149;23;20004;-92
2022/11/22 11:45:48;;;;;;;4.22;1.13;;;7.80;99.90;;;;;;6238981;23;20005;-93
2022/11/22 11:48:27;;;;;;;2.67;0.90;;;7.80;99.90;;;;;;6210981;23;20004;-86
2022/11/22 11:51:06;;;;;;;3.60;1.00;;;7.90;99.90;;;;;;6228931;23;20000;-85
2022/11/22 11:53:32;;;;;;;2.28;1.00;;;7.90;99.90;;;;;;6230128;23;20023;-84
2022/11/22 11:56:40;;;;;;;3.50;0.80;;;7.90;99.90;;;;;;6203448;23;20060;-86
2022/11/22 11:59:12;;;;;;;4.03;1.65;;;8.00;99.90;;;;;;6167121;23;20073;-86
2022/11/22 12:01:47;;;;;;;4.80;1.27;;;8.00;99.90;;;;;;6217272;23;20001;-87
2022/11/22 12:04:23;;;;;;;3.47;0.90;;;8.10;99.90;;;;;;6214929;23;20445;-87
2022/11/22 12:06:54;;;;;;;2.03;0.70;;;8.10;99.90;;;;;;6215125;23;20004;-86
2022/11/22 12:09:27;;;;;;;;;;;8.10;99.90;;;;;;6217574;23;20030;-86
2022/11/22 12:11:55;;;;;;;3.85;0.75;;;8.20;99.90;;;;;;6217887;23;19988;-87
2022/11/22 12:14:25;;;;;;;3.05;0.68;;;8.20;99.90;;;;;;6194869;23;20013;-86
2022/11/22 12:16:56;;;;;;;2.20;0.73;;;8.30;99.90;;;;;;6220424;23;20074;-85
2022/11/22 12:19:31;;;;;;;2.65;0.95;;;8.30;99.90;;;;;;6247741;23;20012;-82
2022/11/22 12:22:28;;;;;;;4.72;1.88;;;8.30;99.90;;;;;;6221928;23;20003;-84
2022/11/22 12:25:08;;;;;;;3.17;0.73;;;8.30;99.90;;;;;;6220261;23;20006;-84
2022/11/22 12:27:33;;;;;;;3.97;1.45;;;8.30;99.90;;;;;;6220447;23;19996;-84
2022/11/22 12:30:02;;;;;;;2.28;1.00;;;8.30;99.90;;;;;;6220611;23;20015;-84
2022/11/22 12:32:39;;;;;;;2.65;0.82;;;8.30;99.90;;;;;;6247996;23;20020;-84
2022/11/22 12:35:11;;;;;;;2.78;0.80;;;8.30;99.90;;;;;;6248169;23;19996;-84
2022/11/22 12:37:45;;;;;;;1.70;0.73;;;8.40;99.90;;;;;;6221160;23;20000;-85
2022/11/22 12:40:22;;;;;;;1.90;1.10;;;8.40;99.90;;;;;;6220984;23;20014;-84
2022/11/22 12:42:55;;;;;;;2.47;0.90;;;8.40;99.90;;;;;;6221322;23;20036;-85
2022/11/22 12:45:34;;;;;;;2.58;0.90;;;8.40;99.90;;;;;;6247470;23;20426;-83
2022/11/22 12:48:06;;;;;;;3.60;0.95;;;8.40;99.90;;;;;;6221015;23;20000;-84
2022/11/22 12:50:52;;;;;;;2.85;0.65;;;8.40;99.90;;;;;;6221400;23;20449;-84
2022/11/22 12:53:32;;;;;;;2.20;0.77;;;8.40;99.90;;;;;;6221354;23;19996;-83
2022/11/22 12:56:31;;;;;;;2.40;0.70;;;8.30;99.90;;;;;;6221165;23;20019;-84
2022/11/22 12:59:23;;;;;;;1.33;0.52;;;8.30;99.90;;;;;;6248014;23;20354;-84
2022/11/22 13:02:01;;;;;;;2.70;0.75;;;8.30;99.90;;;;;;6219086;23;20027;-84
2022/11/22 13:04:41;;;;;;;2.75;0.55;;;8.30;99.90;;;;;;6247841;23;19996;-84
2022/11/22 13:07:12;;;;;;;1.35;0.50;;;8.30;99.90;;;;;;6221536;23;20418;-84
2022/11/22 13:09:48;;;;;;;1.55;0.50;;;8.30;99.90;;;;;;6220983;23;20011;-84
2022/11/22 13:12:18;;;;;;;3.53;0.82;;;8.30;99.90;;;;;;6241321;22;20008;-84
2022/11/22 13:14:51;;;;;;;1.73;0.70;;;8.30;99.90;;;;;;6220737;23;20004;-84
2022/11/22 13:17:17;;;;;;;2.85;0.73;;;8.30;99.90;;;;;;6220779;23;19996;-84
2022/11/22 13:19:50;;;;;;;2.72;0.93;;;8.30;99.90;;;;;;6195127;23;20012;-84
2022/11/22 13:22:32;;;;;;;2.92;0.68;;;8.40;99.90;;;;;;6247564;23;20000;-84
2022/11/22 13:24:57;;;;;;;3.63;0.90;;;8.40;99.90;;;;;;6221058;23;20004;-84
2022/11/22 13:27:59;;;;;;;1.48;0.57;;;8.40;99.90;;;;;;6222011;23;20088;-84
2022/11/22 13:30:27;;;;;;;3.25;0.60;;;8.40;99.90;;;;;;6183441;23;20063;-84